Time;durP1;ratioP1;P1;durP2;ratioP2;P2;SDS_P1;SDS_P2;PMS_P1;PMS_P2;Temp;Humidity;BMP_temperature;BMP_pressure;BME280_temperature;BME280_humidity;BME280_pressure;Samples;Min_cycle;Max_cycle;Signal;HPM_P1;HPM_P2
2022/10/14 00:01:26;;;;;;;68.22;43.42;;;20.30;61.50;;;;;;5024117;28;20092;-74
2022/10/14 00:03:53;;;;;;;61.08;40.35;;;20.30;61.90;;;;;;5009764;28;20195;-74
2022/10/14 00:06:22;;;;;;;59.33;39.28;;;20.40;62.20;;;;;;5010393;28;20036;-74
2022/10/14 00:08:48;;;;;;;55.65;39.45;;;20.40;62.50;;;;;;5001442;28;20038;-73
2022/10/14 00:11:24;;;;;;;57.03;39.88;;;20.40;62.50;;;;;;5022351;28;20370;-73
2022/10/14 00:13:53;;;;;;;54.88;37.97;;;20.40;62.70;;;;;;5029344;28;20035;-73
2022/10/14 00:16:26;;;;;;;56.30;38.63;;;20.40;62.80;;;;;;5030203;28;20112;-73
2022/10/14 00:18:51;;;;;;;57.83;38.67;;;20.40;63.00;;;;;;5029301;28;20026;-73
2022/10/14 00:21:18;;;;;;;54.17;38.35;;;20.40;63.20;;;;;;5029110;28;20052;-73
2022/10/14 00:23:45;;;;;;;53.45;37.15;;;20.40;63.30;;;;;;5029257;28;20500;-73
2022/10/14 00:26:23;;;;;;;51.67;36.72;;;20.40;63.40;;;;;;5030266;28;20025;-73
2022/10/14 00:28:49;;;;;;;53.72;35.90;;;20.40;63.70;;;;;;4996410;28;20191;-73
2022/10/14 00:31:16;;;;;;;53.90;37.50;;;20.40;63.70;;;;;;5012386;28;20047;-73
2022/10/14 00:33:45;;;;;;;49.95;34.50;;;20.40;64.00;;;;;;5013072;28;20128;-73
2022/10/14 00:36:13;;;;;;;50.45;36.00;;;20.40;63.90;;;;;;5028490;28;20486;-73
2022/10/14 00:38:39;;;;;;;52.65;36.05;;;20.40;64.00;;;;;;5028853;28;20064;-73
2022/10/14 00:41:07;;;;;;;49.20;34.47;;;20.40;64.10;;;;;;5029862;28;20029;-73
2022/10/14 00:44:01;;;;;;;48.42;34.80;;;20.50;64.40;;;;;;5028910;28;20053;-73
2022/10/14 00:46:33;;;;;;;49.20;34.72;;;20.40;64.20;;;;;;5028447;28;20055;-73
2022/10/14 00:49:06;;;;;;;49.42;34.28;;;20.40;64.20;;;;;;5012405;28;20033;-73
2022/10/14 00:51:33;;;;;;;49.92;34.63;;;20.40;64.60;;;;;;5028728;28;20107;-74
2022/10/14 00:53:59;;;;;;;49.38;33.50;;;20.40;64.40;;;;;;5028979;28;20041;-74
2022/10/14 00:56:29;;;;;;;46.00;32.83;;;20.40;64.50;;;;;;5028285;28;20029;-74
2022/10/14 00:58:55;;;;;;;;;;;20.40;64.40;;;;;;5029025;28;20029;-73
2022/10/14 01:01:21;;;;;;;50.30;33.13;;;20.40;64.50;;;;;;5044983;28;19916;-74
2022/10/14 01:03:47;;;;;;;45.72;32.65;;;20.40;64.60;;;;;;5029977;28;20029;-73
2022/10/14 01:06:49;;;;;;;43.47;31.77;;;20.50;64.70;;;;;;5028162;28;20122;-73
2022/10/14 01:09:27;;;;;;;44.30;32.75;;;20.50;64.70;;;;;;5013057;28;20037;-73
2022/10/14 01:12:23;;;;;;;42.58;30.90;;;20.40;64.80;;;;;;5012038;28;20044;-73
2022/10/14 01:15:10;;;;;;;46.70;32.28;;;20.40;64.80;;;;;;5028518;28;20045;-73
2022/10/14 01:18:06;;;;;;;44.90;31.38;;;20.40;64.80;;;;;;5029383;28;20505;-73
2022/10/14 01:20:53;;;;;;;41.50;29.42;;;20.40;64.80;;;;;;5028580;28;20367;-73
2022/10/14 01:23:43;;;;;;;41.55;29.17;;;20.50;64.80;;;;;;5028076;28;20117;-73
2022/10/14 01:26:27;;;;;;;41.15;29.35;;;20.40;64.80;;;;;;5028097;28;20025;-73
2022/10/14 01:29:08;;;;;;;42.20;30.42;;;20.40;64.80;;;;;;5028172;28;20060;-73
2022/10/14 01:31:38;;;;;;;44.08;30.58;;;20.50;64.80;;;;;;5027936;28;20120;-73
2022/10/14 01:34:09;;;;;;;43.05;28.80;;;20.40;65.10;;;;;;5029309;28;20033;-73
2022/10/14 01:36:43;;;;;;;40.28;29.42;;;20.40;64.90;;;;;;5028083;28;20033;-73
2022/10/14 01:39:15;;;;;;;41.10;28.73;;;20.40;65.00;;;;;;5029338;28;20048;-73
2022/10/14 01:41:46;;;;;;;41.47;29.17;;;20.40;65.00;;;;;;5027540;28;20393;-73
2022/10/14 01:44:15;;;;;;;38.25;28.52;;;20.40;65.10;;;;;;5011894;28;20040;-73
2022/10/14 01:46:46;;;;;;;41.35;28.88;;;20.40;65.30;;;;;;5011597;28;20025;-73
2022/10/14 01:49:18;;;;;;;38.78;27.65;;;20.50;65.30;;;;;;5011666;28;20040;-73
2022/10/14 01:51:51;;;;;;;39.13;27.98;;;20.40;65.30;;;;;;5029376;28;20026;-73
2022/10/14 01:54:22;;;;;;;38.03;27.23;;;20.40;65.20;;;;;;5027973;28;20033;-73
2022/10/14 01:56:51;;;;;;;38.28;28.17;;;20.40;65.20;;;;;;5028924;28;20033;-73
2022/10/14 01:59:20;;;;;;;37.53;27.30;;;20.40;65.20;;;;;;5011516;28;20037;-73
2022/10/14 02:01:45;;;;;;;36.40;27.75;;;20.40;65.10;;;;;;5027300;28;20325;-73
2022/10/14 02:04:20;;;;;;;34.80;25.88;;;20.40;65.30;;;;;;5028150;28;20026;-73
2022/10/14 02:06:58;;;;;;;37.83;28.52;;;20.40;65.40;;;;;;5027484;28;20037;-73
2022/10/14 02:09:41;;;;;;;37.78;27.02;;;20.50;65.30;;;;;;5044443;28;20087;-74
2022/10/14 02:12:26;;;;;;;41.67;27.90;;;20.50;65.40;;;;;;5028549;28;20113;-73
2022/10/14 02:14:57;;;;;;;40.83;27.67;;;20.40;65.50;;;;;;5027688;28;20029;-73
2022/10/14 02:17:30;;;;;;;36.35;27.10;;;20.40;65.50;;;;;;5027323;28;20034;-73
2022/10/14 02:19:58;;;;;;;35.90;26.42;;;20.40;65.60;;;;;;5029085;28;20030;-73
2022/10/14 02:22:34;;;;;;;37.47;27.00;;;20.40;65.60;;;;;;5051838;22;20041;-71
2022/10/14 02:25:25;;;;;;;36.50;26.10;;;20.40;65.50;;;;;;5048154;28;20476;-71
2022/10/14 02:27:52;;;;;;;36.00;26.23;;;20.40;65.70;;;;;;5048924;28;20420;-71
2022/10/14 02:30:19;;;;;;;38.20;26.52;;;20.40;65.70;;;;;;5064541;28;20400;-71
2022/10/14 02:32:51;;;;;;;35.58;25.70;;;20.40;65.70;;;;;;5047207;28;20115;-71
2022/10/14 02:35:19;;;;;;;32.17;24.52;;;20.40;65.80;;;;;;5047185;28;20033;-72
2022/10/14 02:37:47;;;;;;;33.58;24.67;;;20.40;65.70;;;;;;5048726;28;20068;-71
2022/10/14 02:40:19;;;;;;;34.08;24.55;;;20.40;65.60;;;;;;5031274;28;20491;-71
2022/10/14 02:42:45;;;;;;;32.85;24.25;;;20.40;65.40;;;;;;5047554;28;20091;-72
2022/10/14 02:45:13;;;;;;;33.05;23.80;;;20.50;65.40;;;;;;5047030;28;20025;-72
2022/10/14 02:47:39;;;;;;;35.22;24.05;;;20.40;65.40;;;;;;5030806;28;20029;-72
2022/10/14 02:50:05;;;;;;;37.15;26.00;;;20.40;65.30;;;;;;5048508;28;20477;-72
2022/10/14 02:52:31;;;;;;;33.05;23.58;;;20.40;65.60;;;;;;5047458;28;20060;-72
2022/10/14 02:54:57;;;;;;;34.30;24.95;;;20.50;65.70;;;;;;5052176;28;20072;-71
2022/10/14 02:57:23;;;;;;;39.33;25.45;;;20.40;65.90;;;;;;5050961;28;20033;-71
2022/10/14 02:59:48;;;;;;;31.73;23.20;;;20.50;65.70;;;;;;5052113;28;20036;-71
2022/10/14 03:02:14;;;;;;;31.27;23.52;;;20.40;65.30;;;;;;5050694;28;20108;-72
2022/10/14 03:04:40;;;;;;;34.78;24.70;;;20.40;65.80;;;;;;5050749;28;20028;-71
2022/10/14 03:07:10;;;;;;;32.03;23.63;;;20.40;65.50;;;;;;5034115;28;20041;-71
2022/10/14 03:09:42;;;;;;;32.67;23.98;;;20.40;65.70;;;;;;5050858;28;20382;-72
2022/10/14 03:12:09;;;;;;;32.95;24.73;;;20.40;65.70;;;;;;5050350;28;20090;-73
2022/10/14 03:14:34;;;;;;;32.28;23.13;;;20.40;65.80;;;;;;5050713;28;20021;-72
2022/10/14 03:17:02;;;;;;;32.38;23.17;;;20.40;66.10;;;;;;5033741;28;20051;-71
2022/10/14 03:19:31;;;;;;;32.67;24.48;;;20.40;65.90;;;;;;5050566;28;20025;-71
2022/10/14 03:21:57;;;;;;;32.97;22.77;;;20.40;65.90;;;;;;5033506;28;20404;-71
2022/10/14 03:24:24;;;;;;;31.13;22.63;;;20.40;66.10;;;;;;5050484;28;20501;-71
2022/10/14 03:27:09;;;;;;;31.95;22.88;;;20.40;66.00;;;;;;5049712;28;20509;-71
2022/10/14 03:29:35;;;;;;;30.30;22.10;;;20.40;66.10;;;;;;5050411;28;20075;-71
2022/10/14 03:32:21;;;;;;;32.08;22.75;;;20.40;66.20;;;;;;5050941;28;20041;-71
2022/10/14 03:35:15;;;;;;;33.90;22.52;;;20.40;66.20;;;;;;5033719;28;20037;-71
2022/10/14 03:37:44;;;;;;;30.30;21.38;;;20.40;66.00;;;;;;5049865;28;20488;-71
2022/10/14 03:40:11;;;;;;;32.15;22.38;;;20.40;66.20;;;;;;5050222;28;20458;-71
2022/10/14 03:42:39;;;;;;;33.13;21.33;;;20.40;66.20;;;;;;5049557;28;20029;-71
2022/10/14 03:45:07;;;;;;;29.77;22.55;;;20.40;66.30;;;;;;5033805;28;20027;-71
2022/10/14 03:47:35;;;;;;;27.13;19.67;;;20.40;66.30;;;;;;5050907;28;20070;-71
2022/10/14 03:50:01;;;;;;;30.10;21.83;;;20.40;66.10;;;;;;5049679;28;20492;-71
2022/10/14 03:52:42;;;;;;;30.27;20.58;;;20.40;66.20;;;;;;5049982;28;20102;-72
2022/10/14 03:55:18;;;;;;;30.98;21.85;;;20.40;66.40;;;;;;5049614;28;20040;-71
2022/10/14 03:57:46;;;;;;;34.20;21.77;;;20.40;66.20;;;;;;5050110;28;20455;-72
2022/10/14 04:00:14;;;;;;;30.35;21.52;;;20.40;66.30;;;;;;5049790;28;20029;-72
2022/10/14 04:02:40;;;;;;;26.90;20.45;;;20.40;66.20;;;;;;5050985;28;20025;-71
2022/10/14 04:05:13;;;;;;;29.10;21.23;;;20.40;66.00;;;;;;5049020;28;20056;-71
2022/10/14 04:07:42;;;;;;;27.27;20.67;;;20.50;66.20;;;;;;5049601;28;20065;-71
2022/10/14 04:10:08;;;;;;;28.60;20.85;;;20.50;65.80;;;;;;5049606;28;20029;-71
2022/10/14 04:12:39;;;;;;;27.55;20.42;;;20.40;65.60;;;;;;5049403;28;20089;-71
2022/10/14 04:15:17;;;;;;;;;;;20.40;65.90;;;;;;5049783;28;20032;-72
2022/10/14 04:18:02;;;;;;;28.17;20.48;;;20.40;65.80;;;;;;5049350;28;19912;-71
2022/10/14 04:20:30;;;;;;;26.50;19.45;;;20.40;65.70;;;;;;5049518;28;20493;-71
2022/10/14 04:22:58;;;;;;;28.70;19.60;;;20.40;65.70;;;;;;5049021;28;20033;-72
2022/10/14 04:25:24;;;;;;;27.00;20.45;;;20.40;66.20;;;;;;5048919;28;20021;-72
2022/10/14 04:27:55;;;;;;;28.60;20.08;;;20.40;66.10;;;;;;5049372;28;20413;-71
2022/10/14 04:30:28;;;;;;;27.52;20.58;;;20.40;66.20;;;;;;5049231;28;20076;-71
2022/10/14 04:32:54;;;;;;;27.73;19.85;;;20.40;66.10;;;;;;5049089;28;20036;-72
2022/10/14 04:35:20;;;;;;;25.60;19.17;;;20.50;66.30;;;;;;5048978;28;20040;-71
2022/10/14 04:37:53;;;;;;;25.05;19.02;;;20.40;66.70;;;;;;5049108;28;20033;-71
2022/10/14 04:40:25;;;;;;;26.60;18.98;;;20.40;66.30;;;;;;5049170;28;20025;-71
2022/10/14 04:42:56;;;;;;;27.63;19.65;;;20.40;66.40;;;;;;5032264;28;20087;-71
2022/10/14 04:45:28;;;;;;;28.75;18.95;;;20.40;66.50;;;;;;5048945;28;20037;-70
2022/10/14 04:47:59;;;;;;;26.60;19.15;;;20.40;66.40;;;;;;5050369;28;20033;-71
2022/10/14 04:50:26;;;;;;;25.42;18.92;;;20.40;66.30;;;;;;5048851;28;20025;-71
2022/10/14 04:53:10;;;;;;;27.45;19.13;;;20.40;66.30;;;;;;5049870;28;20297;-71
2022/10/14 04:55:40;;;;;;;26.63;18.80;;;20.40;66.30;;;;;;5048824;28;20052;-71
2022/10/14 04:58:06;;;;;;;25.33;18.88;;;20.40;66.30;;;;;;5048715;28;20029;-71
2022/10/14 05:00:38;;;;;;;25.27;18.73;;;20.40;66.20;;;;;;5048614;28;20029;-71
2022/10/14 05:03:24;;;;;;;28.00;18.38;;;20.40;66.50;;;;;;5027541;28;20394;-71
2022/10/14 05:05:50;;;;;;;24.27;17.80;;;20.40;66.50;;;;;;5021191;28;20445;-71
2022/10/14 05:08:17;;;;;;;26.45;19.15;;;20.40;66.10;;;;;;5027858;28;20033;-71
2022/10/14 05:10:47;;;;;;;24.50;18.10;;;20.40;66.10;;;;;;5028054;28;20828;-70
2022/10/14 05:13:21;;;;;;;27.92;19.67;;;20.40;66.10;;;;;;5027721;28;20034;-71
2022/10/14 05:16:01;;;;;;;27.10;18.50;;;20.40;66.20;;;;;;5027466;28;20052;-71
2022/10/14 05:18:27;;;;;;;25.27;17.40;;;20.40;66.10;;;;;;5028511;28;20482;-72
2022/10/14 05:21:02;;;;;;;26.38;17.42;;;20.40;66.10;;;;;;5028317;28;20076;-72
2022/10/14 05:23:50;;;;;;;24.05;17.75;;;20.40;66.20;;;;;;5012211;28;20055;-72
2022/10/14 05:26:16;;;;;;;27.60;18.55;;;20.40;66.30;;;;;;5027952;28;20052;-72
2022/10/14 05:28:43;;;;;;;21.50;15.43;;;20.40;65.90;;;;;;5028172;28;20038;-73
2022/10/14 05:31:09;;;;;;;24.63;13.45;;;20.40;65.60;;;;;;5054800;28;20036;-71
2022/10/14 05:33:43;;;;;;;20.70;12.43;;;20.30;62.00;;;;;;5021653;28;20029;-71
2022/10/14 05:36:10;;;;;;;20.17;12.57;;;20.20;61.70;;;;;;5016862;28;20033;-72
2022/10/14 05:38:36;;;;;;;21.38;14.18;;;20.30;62.30;;;;;;5050100;28;20029;-71
2022/10/14 05:41:02;;;;;;;21.23;14.15;;;20.30;62.90;;;;;;5036263;28;20045;-71
2022/10/14 05:43:28;;;;;;;26.25;13.95;;;20.30;63.40;;;;;;5011530;28;20029;-71
2022/10/14 05:45:54;;;;;;;21.88;14.35;;;20.30;63.50;;;;;;5028336;28;20033;-71
2022/10/14 05:48:23;;;;;;;21.75;13.10;;;20.30;63.80;;;;;;5028704;28;20030;-71
2022/10/14 05:50:49;;;;;;;19.15;12.75;;;20.30;64.00;;;;;;5028684;28;20041;-71
2022/10/14 05:53:18;;;;;;;22.48;13.75;;;20.30;64.10;;;;;;5028227;28;20109;-71
2022/10/14 05:55:48;;;;;;;20.33;13.60;;;20.30;64.30;;;;;;5028092;28;20120;-71
2022/10/14 05:58:14;;;;;;;19.35;12.82;;;20.30;64.40;;;;;;5027906;28;20117;-72
2022/10/14 06:00:42;;;;;;;20.25;12.50;;;20.30;64.30;;;;;;5028303;28;20100;-71
2022/10/14 06:03:13;;;;;;;19.88;13.35;;;20.40;64.60;;;;;;5012336;28;20061;-71
2022/10/14 06:05:39;;;;;;;17.15;12.25;;;20.30;64.50;;;;;;5027915;28;20033;-71
2022/10/14 06:08:06;;;;;;;20.73;12.38;;;20.30;64.60;;;;;;5028116;28;20037;-71
2022/10/14 06:10:35;;;;;;;19.10;12.93;;;20.30;64.60;;;;;;5028077;28;20053;-71
2022/10/14 06:13:01;;;;;;;18.98;12.35;;;20.40;64.80;;;;;;5028876;28;20393;-71
2022/10/14 06:15:27;;;;;;;18.45;12.15;;;20.30;64.70;;;;;;5029101;28;20433;-71
2022/10/14 06:17:55;;;;;;;20.17;12.43;;;20.40;64.80;;;;;;5028185;28;20079;-72
2022/10/14 06:20:20;;;;;;;20.75;12.25;;;20.40;64.80;;;;;;5027911;28;20100;-72
2022/10/14 06:22:46;;;;;;;17.85;11.80;;;20.30;64.80;;;;;;5028952;28;20041;-71
2022/10/14 06:25:12;;;;;;;18.65;12.18;;;20.30;64.90;;;;;;5011417;28;20048;-72
2022/10/14 06:27:38;;;;;;;18.15;11.60;;;20.40;65.00;;;;;;5031110;28;20025;-72
2022/10/14 06:30:04;;;;;;;19.08;11.90;;;20.40;65.00;;;;;;5033079;28;20496;-72
2022/10/14 06:32:30;;;;;;;17.60;12.15;;;20.30;65.10;;;;;;5033018;28;20121;-72
2022/10/14 06:34:56;;;;;;;18.20;11.93;;;20.40;65.00;;;;;;5032739;28;20112;-72
2022/10/14 06:37:21;;;;;;;18.73;11.88;;;20.30;65.50;;;;;;5032582;28;20025;-71
2022/10/14 06:39:48;;;;;;;17.52;11.63;;;20.40;65.10;;;;;;5032692;28;20018;-72
2022/10/14 06:42:14;;;;;;;19.38;12.50;;;20.30;65.00;;;;;;5032720;28;20079;-72
2022/10/14 06:44:39;;;;;;;18.90;12.02;;;20.40;65.20;;;;;;5032923;28;20029;-72
2022/10/14 06:47:06;;;;;;;16.15;11.80;;;20.30;65.10;;;;;;5030947;28;20036;-72
2022/10/14 06:49:31;;;;;;;18.65;11.60;;;20.40;65.30;;;;;;5032665;28;20033;-72
2022/10/14 06:51:57;;;;;;;19.95;11.20;;;20.40;65.10;;;;;;5032360;28;20104;-72
2022/10/14 06:54:23;;;;;;;17.83;10.98;;;20.40;65.20;;;;;;5032282;28;20021;-71
2022/10/14 06:56:48;;;;;;;17.45;11.95;;;20.40;65.00;;;;;;5032176;28;20033;-71
2022/10/14 06:59:14;;;;;;;20.73;11.60;;;20.40;65.00;;;;;;5032474;28;20092;-71
2022/10/14 07:01:40;;;;;;;17.02;11.32;;;20.40;65.00;;;;;;5031824;28;20029;-72
2022/10/14 07:04:06;;;;;;;18.73;11.95;;;20.40;65.30;;;;;;5032482;28;20030;-71
2022/10/14 07:06:32;;;;;;;17.05;11.05;;;20.40;64.90;;;;;;5031975;28;20032;-72
2022/10/14 07:08:57;;;;;;;18.58;11.13;;;20.40;64.90;;;;;;5030929;28;20405;-72
2022/10/14 07:11:23;;;;;;;16.98;11.23;;;20.40;65.10;;;;;;5030868;28;20113;-72
2022/10/14 07:13:49;;;;;;;18.05;11.48;;;20.40;65.10;;;;;;5032036;28;20036;-71
2022/10/14 07:16:15;;;;;;;18.38;11.05;;;20.40;65.30;;;;;;5031729;28;20022;-72
2022/10/14 07:18:41;;;;;;;19.60;11.20;;;20.40;65.40;;;;;;5031900;28;20033;-72
2022/10/14 07:21:06;;;;;;;16.25;11.45;;;20.40;65.40;;;;;;5030409;28;20030;-72
2022/10/14 07:23:32;;;;;;;17.85;11.20;;;20.40;65.50;;;;;;5032069;28;20029;-72
2022/10/14 07:25:59;;;;;;;18.30;11.23;;;20.40;65.50;;;;;;5030492;28;20030;-72
2022/10/14 07:28:25;;;;;;;17.70;11.13;;;20.40;65.60;;;;;;5031996;28;20026;-72
2022/10/14 07:31:03;;;;;;;15.80;11.23;;;20.40;65.50;;;;;;5030646;28;20083;-72
2022/10/14 07:33:28;;;;;;;18.25;11.57;;;20.40;65.70;;;;;;5031629;28;20040;-71
2022/10/14 07:35:55;;;;;;;16.50;10.30;;;20.40;65.70;;;;;;5031389;28;20481;-72
2022/10/14 07:38:21;;;;;;;15.93;10.60;;;20.40;65.70;;;;;;5029912;28;20037;-72
2022/10/14 07:41:01;;;;;;;16.70;11.10;;;20.40;65.80;;;;;;5014140;28;20389;-72
2022/10/14 07:43:28;;;;;;;17.08;10.75;;;20.40;65.70;;;;;;5030653;28;20025;-72
2022/10/14 07:46:00;;;;;;;17.80;10.95;;;20.40;65.80;;;;;;5031039;28;20022;-72
2022/10/14 07:48:28;;;;;;;15.30;10.05;;;20.40;65.80;;;;;;5031871;28;20029;-71
2022/10/14 07:50:54;;;;;;;19.10;11.38;;;20.30;65.80;;;;;;5031551;28;20036;-72
2022/10/14 07:53:21;;;;;;;18.95;11.13;;;20.40;65.90;;;;;;5031513;28;20029;-72
2022/10/14 07:55:51;;;;;;;18.70;10.55;;;20.40;65.80;;;;;;5029696;28;20061;-72
2022/10/14 07:58:21;;;;;;;16.80;10.90;;;20.40;65.90;;;;;;5033889;28;20041;-72
2022/10/14 08:00:48;;;;;;;17.90;11.13;;;20.40;66.10;;;;;;5038090;28;20037;-72
2022/10/14 08:03:15;;;;;;;17.95;10.80;;;20.40;65.80;;;;;;5037049;28;20033;-72
2022/10/14 08:05:41;;;;;;;18.70;10.40;;;20.40;66.00;;;;;;5033180;28;20025;-72
2022/10/14 08:08:07;;;;;;;16.40;10.30;;;20.40;66.00;;;;;;5031848;28;20423;-72
2022/10/14 08:10:34;;;;;;;16.38;10.68;;;20.40;65.80;;;;;;5042928;28;20036;-72
2022/10/14 08:13:00;;;;;;;17.25;11.40;;;20.40;65.60;;;;;;5034070;28;20018;-72
2022/10/14 08:15:29;;;;;;;17.52;10.48;;;20.40;65.60;;;;;;5030414;28;20452;-72
2022/10/14 08:17:56;;;;;;;16.45;10.55;;;20.40;65.60;;;;;;5020022;28;20038;-72
2022/10/14 08:20:21;;;;;;;15.30;10.07;;;20.40;65.60;;;;;;5027570;28;20029;-72
2022/10/14 08:22:47;;;;;;;16.35;10.05;;;20.40;66.00;;;;;;5024580;23;20045;-75
2022/10/14 08:25:13;;;;;;;16.75;10.57;;;20.40;65.80;;;;;;5003484;28;20088;-75
2022/10/14 08:27:39;;;;;;;16.38;10.07;;;20.40;65.60;;;;;;4997047;28;20049;-75
2022/10/14 08:30:05;;;;;;;16.17;10.30;;;20.50;65.50;;;;;;4989950;28;20068;-75
2022/10/14 08:32:31;;;;;;;15.90;10.38;;;20.40;65.20;;;;;;5000285;28;20033;-75
2022/10/14 08:34:56;;;;;;;15.02;10.50;;;20.50;65.80;;;;;;4980541;28;20038;-75
2022/10/14 08:37:22;;;;;;;15.90;10.02;;;20.50;66.60;;;;;;4998477;28;20030;-75
2022/10/14 08:39:48;;;;;;;14.40;9.80;;;20.50;65.80;;;;;;4983291;28;20030;-75
2022/10/14 08:42:34;;;;;;;24.33;10.25;;;20.50;65.60;;;;;;4981456;28;20038;-75
2022/10/14 08:45:07;;;;;;;14.57;9.88;;;20.50;66.10;;;;;;4999918;28;20042;-75
2022/10/14 08:47:40;;;;;;;16.30;10.82;;;20.50;66.40;;;;;;4997930;28;20109;-75
2022/10/14 08:50:26;;;;;;;16.13;10.13;;;20.50;66.10;;;;;;4999607;28;20028;-75
2022/10/14 08:53:18;;;;;;;16.50;10.27;;;20.50;66.00;;;;;;4999442;28;20427;-75
2022/10/14 08:55:51;;;;;;;15.75;10.23;;;20.50;65.70;;;;;;4998796;28;20360;-75
2022/10/14 08:58:32;;;;;;;14.60;10.18;;;20.50;65.80;;;;;;4999474;28;20037;-75
2022/10/14 09:01:04;;;;;;;16.88;9.90;;;20.50;65.80;;;;;;4984192;28;20387;-75
2022/10/14 09:03:33;;;;;;;14.45;9.40;;;20.50;65.70;;;;;;5001786;28;20157;-75
2022/10/14 09:06:03;;;;;;;15.27;9.93;;;20.50;65.70;;;;;;4999240;28;20026;-74
2022/10/14 09:08:41;;;;;;;15.60;10.10;;;20.50;66.10;;;;;;4999030;28;20284;-74
2022/10/14 09:11:15;;;;;;;16.40;10.00;;;20.50;66.90;;;;;;4999180;28;20150;-73
2022/10/14 09:13:44;;;;;;;16.65;10.70;;;20.50;66.50;;;;;;4998404;28;20026;-74
2022/10/14 09:16:13;;;;;;;16.02;9.82;;;20.50;66.30;;;;;;4997250;28;20034;-74
2022/10/14 09:18:44;;;;;;;17.95;10.13;;;20.50;66.80;;;;;;4998673;28;20129;-74
2022/10/14 09:21:20;;;;;;;16.77;9.52;;;20.50;66.70;;;;;;4998586;28;20037;-74
2022/10/14 09:23:47;;;;;;;13.82;9.52;;;20.50;66.40;;;;;;4998219;28;20045;-74
2022/10/14 09:26:18;;;;;;;14.80;9.63;;;20.50;66.50;;;;;;4998539;28;20022;-74
2022/10/14 09:28:53;;;;;;;15.98;10.18;;;20.50;66.70;;;;;;4998385;28;20405;-74
2022/10/14 09:31:18;;;;;;;16.42;10.35;;;20.50;66.10;;;;;;4998301;28;20030;-74
2022/10/14 09:33:54;;;;;;;16.27;9.93;;;20.50;66.20;;;;;;5001629;28;20030;-78
2022/10/14 09:36:20;;;;;;;15.15;10.25;;;20.50;66.40;;;;;;5004639;28;20064;-79
2022/10/14 09:38:55;;;;;;;16.98;10.43;;;20.50;66.00;;;;;;4992621;28;20075;-79
2022/10/14 09:41:29;;;;;;;23.80;11.40;;;20.50;64.90;;;;;;5008829;28;20421;-76
2022/10/14 09:44:21;;;;;;;25.80;14.30;;;20.50;64.70;;;;;;5008817;28;20482;-77
2022/10/14 09:47:03;;;;;;;25.95;13.75;;;20.40;64.60;;;;;;5009838;28;20029;-78
2022/10/14 09:49:37;;;;;;;22.88;12.65;;;20.40;65.40;;;;;;5009504;28;20042;-77
2022/10/14 09:52:04;;;;;;;29.08;14.25;;;20.50;65.80;;;;;;5009010;28;20037;-78
2022/10/14 09:54:31;;;;;;;23.95;12.32;;;20.50;64.90;;;;;;5009894;28;20026;-77
2022/10/14 09:57:06;;;;;;;20.95;13.30;;;20.50;64.80;;;;;;5009869;28;20101;-77
2022/10/14 09:59:48;;;;;;;34.58;17.38;;;20.50;64.90;;;;;;5008158;28;20026;-74
2022/10/14 10:02:25;;;;;;;29.67;15.63;;;20.60;65.00;;;;;;5001170;28;20080;-74
2022/10/14 10:04:51;;;;;;;26.90;15.50;;;20.50;64.10;;;;;;4995167;28;20053;-74
2022/10/14 10:07:37;;;;;;;23.52;14.77;;;20.50;65.00;;;;;;5010954;28;20474;-74
2022/10/14 10:10:19;;;;;;;26.25;13.23;;;20.50;65.30;;;;;;5011562;28;20065;-74
2022/10/14 10:12:46;;;;;;;23.00;13.10;;;20.50;63.80;;;;;;5013714;28;20455;-74
2022/10/14 10:15:23;;;;;;;20.85;12.73;;;20.60;63.20;;;;;;5011990;28;20033;-75
2022/10/14 10:17:49;;;;;;;22.70;11.93;;;20.60;63.70;;;;;;5013561;28;20144;-74
2022/10/14 10:20:32;;;;;;;25.33;12.65;;;20.60;63.70;;;;;;5013916;28;20029;-75
2022/10/14 10:23:24;;;;;;;18.00;11.73;;;20.60;63.60;;;;;;5012239;28;20042;-75
2022/10/14 10:25:50;;;;;;;22.20;12.15;;;20.60;63.80;;;;;;5013012;28;20030;-75
2022/10/14 10:28:30;;;;;;;18.98;11.25;;;20.60;64.00;;;;;;5013323;28;20034;-75
2022/10/14 10:31:25;;;;;;;18.83;11.45;;;20.60;64.10;;;;;;5013152;28;20029;-75
2022/10/14 10:33:55;;;;;;;21.17;11.32;;;20.60;64.10;;;;;;5013284;28;20030;-75
2022/10/14 10:36:40;;;;;;;17.98;10.75;;;20.60;64.20;;;;;;4995497;28;20038;-75
2022/10/14 10:39:12;;;;;;;19.75;11.40;;;20.60;64.40;;;;;;5012968;28;20034;-74
2022/10/14 10:41:57;;;;;;;16.92;10.43;;;20.60;65.10;;;;;;5012749;28;20494;-74
2022/10/14 10:44:52;;;;;;;20.38;10.35;;;20.60;64.80;;;;;;5012941;28;20100;-75
2022/10/14 10:47:40;;;;;;;21.67;10.05;;;20.60;64.90;;;;;;5009966;28;20021;-75
2022/10/14 10:54:47;;;;;;;22.10;10.60;;;20.60;65.40;;;;;;5015099;28;20045;-79
2022/10/14 10:57:48;;;;;;;20.13;10.25;;;20.60;65.50;;;;;;5013087;28;20040;-77
2022/10/14 11:00:22;;;;;;;17.53;9.93;;;20.60;65.60;;;;;;5013941;28;20033;-79
2022/10/14 11:03:15;;;;;;;18.00;10.23;;;20.60;65.90;;;;;;5014304;28;20484;-75
2022/10/14 11:05:55;;;;;;;18.33;10.35;;;20.50;65.20;;;;;;5019925;28;20033;-75
2022/10/14 11:14:45;;;;;;;19.42;10.63;;;20.50;64.50;;;;;;5030143;28;20037;-75
2022/10/14 11:17:49;;;;;;;21.13;10.38;;;20.50;64.00;;;;;;5032234;28;20029;-75
2022/10/14 11:20:21;;;;;;;27.30;10.82;;;20.50;63.50;;;;;;5027955;28;20049;-74
2022/10/14 11:23:15;;;;;;;20.88;10.80;;;20.50;63.60;;;;;;5023638;28;20061;-75
2022/10/14 11:25:54;;;;;;;26.80;9.70;;;20.60;63.70;;;;;;5011956;28;20099;-74
2022/10/14 11:28:19;;;;;;;25.23;9.95;;;20.60;63.80;;;;;;5010921;28;20038;-75
2022/10/14 11:30:59;;;;;;;23.73;9.60;;;20.60;63.80;;;;;;5012172;28;20037;-75
2022/10/14 11:33:51;;;;;;;25.70;10.85;;;20.70;64.30;;;;;;5012167;28;20060;-75
2022/10/14 11:36:56;;;;;;;19.83;9.95;;;20.70;64.90;;;;;;4994054;28;20037;-75
2022/10/14 11:39:39;;;;;;;25.15;9.98;;;20.70;64.10;;;;;;5011741;28;20037;-75
2022/10/14 11:42:31;;;;;;;22.77;9.88;;;20.70;65.30;;;;;;5010103;28;20139;-75
2022/10/14 11:45:09;;;;;;;23.15;8.30;;;20.70;64.50;;;;;;5011236;28;20062;-75
2022/10/14 11:47:39;;;;;;;17.05;8.27;;;20.80;64.90;;;;;;5005344;28;20057;-74
2022/10/14 11:50:27;;;;;;;17.45;7.90;;;20.80;64.90;;;;;;5009700;28;20054;-75
2022/10/14 11:53:03;;;;;;;19.70;8.95;;;20.80;64.80;;;;;;5009310;28;20450;-75
2022/10/14 11:55:42;;;;;;;12.05;7.57;;;20.80;64.80;;;;;;5010688;28;20030;-74
2022/10/14 11:58:14;;;;;;;17.85;8.02;;;20.80;64.80;;;;;;5006560;28;20067;-75
2022/10/14 12:03:43;;;;;;;14.90;7.25;;;20.90;65.30;;;;;;5019540;28;20432;-75
2022/10/14 12:06:33;;;;;;;16.02;7.53;;;20.90;65.30;;;;;;4991806;28;20470;-75
2022/10/14 12:09:22;;;;;;;19.90;8.02;;;20.90;65.20;;;;;;5026931;28;20753;-75
2022/10/14 12:12:17;;;;;;;16.58;7.57;;;20.90;65.30;;;;;;5007731;28;20125;-75
2022/10/14 12:15:00;;;;;;;14.88;7.82;;;20.90;65.20;;;;;;5011374;28;20136;-76
2022/10/14 12:17:32;;;;;;;16.25;7.28;;;20.90;65.30;;;;;;5024067;28;20044;-75
2022/10/14 12:20:23;;;;;;;14.57;7.00;;;20.90;65.30;;;;;;5010777;28;20048;-74
2022/10/14 12:22:50;;;;;;;23.92;7.97;;;20.90;65.50;;;;;;5011083;28;20052;-75
2022/10/14 12:25:23;;;;;;;14.68;7.10;;;21.00;65.70;;;;;;5007075;28;20030;-74
2022/10/14 12:27:52;;;;;;;23.67;6.85;;;21.00;65.50;;;;;;5009017;28;20038;-75
2022/10/14 12:30:41;;;;;;;18.00;6.20;;;21.00;65.50;;;;;;5008119;28;20038;-76
2022/10/14 12:33:12;;;;;;;18.08;7.05;;;21.00;65.70;;;;;;5015725;28;20522;-75
2022/10/14 12:36:00;;;;;;;21.02;7.55;;;21.00;65.80;;;;;;5006342;28;20030;-76
2022/10/14 12:38:28;;;;;;;15.65;7.50;;;20.90;65.80;;;;;;4994007;28;20038;-83
2022/10/14 12:41:31;;;;;;;15.88;6.63;;;20.90;66.00;;;;;;5005343;28;20293;-75
2022/10/14 12:44:00;;;;;;;15.48;6.55;;;20.90;65.80;;;;;;5013643;28;20080;-75
2022/10/14 12:46:26;;;;;;;18.40;7.35;;;20.90;65.80;;;;;;5012752;28;20083;-75
2022/10/14 12:48:53;;;;;;;15.13;7.35;;;20.90;65.80;;;;;;5016815;28;20034;-76
2022/10/14 12:51:23;;;;;;;29.90;7.90;;;20.90;65.70;;;;;;5018937;28;20504;-76
2022/10/14 12:53:56;;;;;;;23.48;7.25;;;20.80;65.60;;;;;;5004185;28;20501;-74
2022/10/14 12:56:35;;;;;;;20.00;7.65;;;20.80;65.60;;;;;;5012073;28;20033;-77
2022/10/14 12:59:08;;;;;;;21.70;8.10;;;20.80;65.70;;;;;;5016398;28;20030;-76
2022/10/14 13:01:36;;;;;;;28.58;8.52;;;20.90;66.00;;;;;;5007132;28;20097;-75
2022/10/14 13:04:17;;;;;;;21.35;8.52;;;20.90;66.50;;;;;;5007514;28;20433;-75
2022/10/14 13:07:04;;;;;;;23.25;8.48;;;20.90;66.40;;;;;;5017451;28;20033;-75
2022/10/14 13:09:34;;;;;;;25.98;8.75;;;21.00;66.30;;;;;;5014555;28;20034;-75